createdAt,value
2019-02-20T00:01:30.923Z,13.00
2019-02-20T00:05:31.864Z,15.10
2019-02-20T00:09:52.725Z,15.63
2019-02-20T00:14:13.582Z,16.97
2019-02-20T00:18:14.515Z,14.53
2019-02-20T00:22:28.411Z,14.17
2019-02-20T00:26:42.866Z,12.83
2019-02-20T00:30:57.365Z,13.40
2019-02-20T00:35:12.033Z,11.83
2019-02-20T00:39:26.479Z,12.50
2019-02-20T00:43:43.218Z,13.83
2019-02-20T00:48:17.401Z,12.60
2019-02-20T00:52:34.004Z,13.80
2019-02-20T00:56:48.652Z,11.23
2019-02-20T01:01:03.130Z,14.30
2019-02-20T01:05:17.921Z,15.93
2019-02-20T01:09:32.412Z,15.10
2019-02-20T01:13:47.072Z,14.53
2019-02-20T01:17:47.990Z,11.67
2019-02-20T01:21:48.932Z,11.97
2019-02-20T01:25:49.818Z,11.77
2019-02-20T01:30:11.053Z,13.23
2019-02-20T01:34:11.942Z,12.13
2019-02-20T01:38:32.702Z,17.00
2019-02-20T01:42:53.657Z,13.17
2019-02-20T01:47:14.525Z,12.20
2019-02-20T01:51:35.257Z,13.17
2019-02-20T01:55:56.001Z,12.83
2019-02-20T02:00:16.755Z,11.10
2019-02-20T02:04:39.431Z,10.97
2019-02-20T02:08:40.420Z,12.27
2019-02-20T02:13:01.145Z,11.20
2019-02-20T02:17:21.914Z,11.67
2019-02-20T02:21:36.169Z,11.83
2019-02-20T02:25:50.936Z,11.83
2019-02-20T02:30:05.602Z,12.47
2019-02-20T02:34:20.412Z,12.87
2019-02-20T02:38:35.012Z,9.97
2019-02-20T02:42:48.917Z,11.40
2019-02-20T02:47:03.547Z,10.07
2019-02-20T02:51:19.583Z,11.83
2019-02-20T02:55:33.677Z,12.43
2019-02-20T02:59:54.463Z,14.07
2019-02-20T03:08:37.774Z,12.30
2019-02-20T03:12:38.675Z,15.10
2019-02-20T03:16:59.431Z,13.13
2019-02-20T03:21:13.501Z,14.17
2019-02-20T03:25:32.062Z,14.70
2019-02-20T03:29:46.884Z,13.87
2019-02-20T03:34:04.238Z,12.33
2019-02-20T03:38:30.132Z,13.50
2019-02-20T03:42:36.903Z,16.20
2019-02-20T03:46:52.172Z,15.90
2019-02-20T03:51:06.036Z,16.30
2019-02-20T03:55:20.683Z,14.90
2019-02-20T04:00:03.409Z,12.50
2019-02-20T04:04:24.242Z,10.57
2019-02-20T04:08:45.071Z,10.80
2019-02-20T04:13:05.813Z,10.97
2019-02-20T04:17:26.560Z,12.50
2019-02-20T04:21:40.714Z,10.80
2019-02-20T04:25:54.508Z,13.53
2019-02-20T04:30:09.215Z,10.60
2019-02-20T04:34:23.706Z,10.73
2019-02-20T04:38:37.475Z,10.07
2019-02-20T04:42:58.390Z,10.27
2019-02-20T04:47:15.575Z,13.45
2019-02-20T04:51:16.453Z,11.33
2019-02-20T04:55:37.224Z,11.57
2019-02-20T04:59:58.281Z,12.27
2019-02-20T05:04:19.181Z,11.17
2019-02-20T05:08:40.025Z,10.47
2019-02-20T05:13:00.892Z,11.17
2019-02-20T05:17:42.656Z,11.00
2019-02-20T05:21:57.012Z,12.47
2019-02-20T05:26:11.290Z,10.10
2019-02-20T05:30:26.011Z,10.00
2019-02-20T05:34:39.836Z,13.67
2019-02-20T05:38:54.425Z,13.47
2019-02-20T05:43:09.024Z,14.40
2019-02-20T05:47:23.397Z,14.70
2019-02-20T05:51:38.437Z,13.87
2019-02-20T06:00:49.734Z,15.77
2019-02-20T06:05:10.628Z,13.07
2019-02-20T06:09:31.609Z,12.50
2019-02-20T06:13:52.567Z,13.30
2019-02-20T06:18:13.364Z,13.30
2019-02-20T06:22:14.385Z,12.33
2019-02-20T06:26:35.369Z,13.17
2019-02-20T06:30:56.420Z,12.80
2019-02-20T06:35:17.235Z,11.33
2019-02-20T06:39:37.980Z,14.43
2019-02-20T06:43:58.929Z,13.77
2019-02-20T06:48:19.743Z,12.97
2019-02-20T06:52:40.545Z,13.70
2019-02-20T06:57:01.680Z,15.60
2019-02-20T07:01:22.534Z,14.67
2019-02-20T07:05:43.368Z,15.33
2019-02-20T07:10:25.423Z,15.00
2019-02-20T07:15:06.353Z,15.83
2019-02-20T07:19:47.967Z,16.33
2019-02-20T07:24:02.726Z,15.73
2019-02-20T07:28:17.320Z,14.93
2019-02-20T07:32:33.952Z,13.60
2019-02-20T07:36:48.800Z,13.87
2019-02-20T07:41:03.444Z,23.30
2019-02-20T07:45:18.209Z,19.10
2019-02-20T07:49:36.313Z,14.80
2019-02-20T07:53:50.520Z,16.10
2019-02-20T07:58:06.056Z,24.20
2019-02-20T08:02:20.094Z,18.07
2019-02-20T08:06:20.997Z,18.63
2019-02-20T08:10:41.752Z,16.30
2019-02-20T08:15:03.316Z,16.53
2019-02-20T08:19:24.416Z,14.60
2019-02-20T08:23:38.547Z,15.23
2019-02-20T08:27:53.288Z,15.43
2019-02-20T08:32:07.836Z,18.40
2019-02-20T08:36:08.845Z,14.87
2019-02-20T08:40:30.031Z,17.43
2019-02-20T08:44:50.757Z,17.10
2019-02-20T08:49:11.524Z,15.93
2019-02-20T08:53:32.309Z,29.50
2019-02-20T08:57:53.236Z,27.60
2019-02-20T09:02:35.781Z,22.40
2019-02-20T09:06:56.564Z,20.83
2019-02-20T09:11:17.322Z,20.60
2019-02-20T09:15:38.165Z,17.63
2019-02-20T09:19:52.142Z,17.07
2019-02-20T09:24:07.974Z,15.37
2019-02-20T09:28:23.889Z,11.70
2019-02-20T09:32:37.894Z,11.60
2019-02-20T09:36:52.580Z,11.13
2019-02-20T09:41:07.157Z,8.87
2019-02-20T09:45:21.327Z,8.80
2019-02-20T09:49:35.874Z,9.20
2019-02-20T09:53:50.322Z,11.97
2019-02-20T09:58:04.729Z,10.57
2019-02-20T10:02:19.246Z,9.60
2019-02-20T10:06:34.765Z,9.70
2019-02-20T10:10:52.807Z,9.87
2019-02-20T10:15:07.781Z,8.77
2019-02-20T10:19:23.243Z,9.03
2019-02-20T10:23:37.507Z,9.50
2019-02-20T10:27:52.256Z,9.87
2019-02-20T10:32:06.302Z,8.57
2019-02-20T10:36:20.936Z,10.23
2019-02-20T10:40:35.304Z,10.17
2019-02-20T10:44:49.807Z,9.70
2019-02-20T10:49:04.293Z,9.77
2019-02-20T10:53:18.711Z,11.17
2019-02-20T10:57:37.283Z,11.00
2019-02-20T11:01:54.966Z,10.67
2019-02-20T11:06:09.895Z,10.63
2019-02-20T11:10:24.439Z,11.70
2019-02-20T11:14:39.028Z,10.67
2019-02-20T11:18:53.689Z,11.53
2019-02-20T11:23:08.257Z,13.30
2019-02-20T11:27:22.677Z,10.03
2019-02-20T11:31:39.137Z,10.90
2019-02-20T11:35:52.958Z,10.23
2019-02-20T11:40:07.670Z,10.00
2019-02-20T11:44:21.773Z,11.03
2019-02-20T11:48:38.702Z,12.03
2019-02-20T11:52:52.950Z,13.07
2019-02-20T11:57:07.246Z,9.53
2019-02-20T12:01:21.734Z,8.13
2019-02-20T12:05:36.393Z,9.50
2019-02-20T12:09:51.128Z,10.30
2019-02-20T12:14:05.723Z,10.10
2019-02-20T12:18:20.224Z,10.43
2019-02-20T12:22:34.793Z,10.70
2019-02-20T12:26:49.382Z,9.17
2019-02-20T12:31:03.825Z,8.53
2019-02-20T12:35:20.672Z,8.37
2019-02-20T12:39:35.043Z,7.97
2019-02-20T12:43:49.258Z,10.13
2019-02-20T12:48:04.074Z,9.80
2019-02-20T12:52:18.677Z,8.93
2019-02-20T12:56:32.508Z,9.30
2019-02-20T13:00:47.415Z,8.23
2019-02-20T13:05:02.049Z,8.93
2019-02-20T13:09:18.127Z,9.93
2019-02-20T13:17:51.577Z,8.57
2019-02-20T13:22:06.387Z,7.80
2019-02-20T13:26:22.315Z,7.30
2019-02-20T13:30:36.822Z,6.60
2019-02-20T13:34:52.686Z,6.30
2019-02-20T13:39:07.016Z,6.33
2019-02-20T13:47:36.897Z,5.43
2019-02-20T13:51:57.751Z,6.40
2019-02-20T13:56:18.682Z,5.53
2019-02-20T14:00:40.842Z,6.83
2019-02-20T14:05:01.736Z,7.10
2019-02-20T14:09:23.721Z,6.27
2019-02-20T14:13:44.712Z,6.93
2019-02-20T14:17:45.724Z,5.87
2019-02-20T14:22:02.348Z,6.10
2019-02-20T14:26:16.308Z,7.83
2019-02-20T14:30:30.794Z,7.50
2019-02-20T14:34:45.615Z,6.90
2019-02-20T14:39:00.997Z,8.87
2019-02-20T14:43:15.605Z,7.60
2019-02-20T14:47:30.961Z,7.50
2019-02-20T14:51:44.970Z,7.80
2019-02-20T14:55:59.623Z,7.10
2019-02-20T15:00:13.981Z,9.07
2019-02-20T15:04:15.175Z,8.83
2019-02-20T15:08:16.316Z,9.07
2019-02-20T15:17:28.611Z,11.07
2019-02-20T15:21:42.787Z,9.40
2019-02-20T15:25:57.250Z,9.60
2019-02-20T15:30:12.551Z,9.37
2019-02-20T15:34:28.115Z,8.97
2019-02-20T15:38:46.187Z,11.47
2019-02-20T15:43:01.595Z,9.03
2019-02-20T15:47:16.282Z,9.90
2019-02-20T15:51:30.875Z,10.63
2019-02-20T15:55:45.240Z,8.77
2019-02-20T15:59:59.859Z,10.57
2019-02-20T16:04:01.056Z,9.30
2019-02-20T16:08:15.041Z,10.43
2019-02-20T16:12:29.675Z,9.60
2019-02-20T16:16:44.475Z,10.23
2019-02-20T16:20:59.170Z,9.93
2019-02-20T16:25:13.674Z,12.30
2019-02-20T16:29:28.266Z,16.27
2019-02-20T16:33:42.702Z,15.53
2019-02-20T16:37:57.209Z,10.97
2019-02-20T16:42:12.084Z,10.83
2019-02-20T16:46:28.384Z,12.33
2019-02-20T16:50:42.961Z,11.90
2019-02-20T16:54:57.989Z,12.27
2019-02-20T16:58:59.215Z,12.03
2019-02-20T17:03:20.060Z,11.97
2019-02-20T17:07:21.289Z,13.93
2019-02-20T17:11:43.819Z,13.47
2019-02-20T17:16:04.730Z,14.50
2019-02-20T17:20:25.609Z,12.63
2019-02-20T17:24:46.661Z,13.23
2019-02-20T17:29:09.072Z,14.07
2019-02-20T17:33:31.825Z,11.33
2019-02-20T17:37:52.661Z,12.60
2019-02-20T17:42:13.523Z,13.77
2019-02-20T17:46:14.565Z,13.73
2019-02-20T17:50:57.176Z,12.27
2019-02-20T17:55:18.016Z,13.67
2019-02-20T17:59:38.873Z,14.50
2019-02-20T18:03:59.591Z,13.27
2019-02-20T18:08:13.793Z,13.23
2019-02-20T18:12:28.144Z,16.03
2019-02-20T18:16:29.130Z,14.73
2019-02-20T18:20:49.880Z,15.63
2019-02-20T18:25:10.940Z,17.03
2019-02-20T18:29:31.716Z,17.93
2019-02-20T18:33:52.702Z,19.33
2019-02-20T18:38:13.641Z,20.37
2019-02-20T18:42:36.260Z,31.40
2019-02-20T18:46:57.272Z,29.80
2019-02-20T18:51:18.203Z,29.80
2019-02-20T18:55:39.211Z,27.37
2019-02-20T19:00:19.891Z,22.30
2019-02-20T19:04:40.940Z,24.83
2019-02-20T19:09:23.743Z,24.90
2019-02-20T19:14:04.572Z,35.70
2019-02-20T19:18:47.107Z,28.47
2019-02-20T19:23:01.673Z,25.80
2019-02-20T19:27:16.077Z,18.73
2019-02-20T19:31:30.745Z,16.13
2019-02-20T19:35:45.263Z,16.77
2019-02-20T19:39:59.572Z,14.23
2019-02-20T19:44:14.130Z,15.33
2019-02-20T19:48:28.250Z,16.23
2019-02-20T19:52:43.035Z,16.37
2019-02-20T19:56:57.864Z,16.90
2019-02-20T20:01:13.071Z,16.77
2019-02-20T20:05:27.714Z,16.33
2019-02-20T20:09:42.198Z,16.30
2019-02-20T20:13:56.857Z,16.13
2019-02-20T20:18:11.716Z,18.53
2019-02-20T20:22:25.973Z,16.90
2019-02-20T20:26:40.683Z,21.00
2019-02-20T20:31:03.459Z,43.23
2019-02-20T20:35:46.073Z,66.53
2019-02-20T20:40:26.864Z,58.33
2019-02-20T20:45:07.458Z,50.30
2019-02-20T20:49:49.360Z,39.70
2019-02-20T20:54:32.116Z,36.33
2019-02-20T20:59:17.492Z,29.17
2019-02-20T21:03:59.074Z,28.90
2019-02-20T21:08:13.536Z,25.23
2019-02-20T21:12:31.018Z,26.23
2019-02-20T21:16:45.007Z,21.80
2019-02-20T21:20:59.564Z,20.70
2019-02-20T21:25:40.221Z,22.50
2019-02-20T21:30:22.843Z,21.20
2019-02-20T21:35:05.356Z,21.33
2019-02-20T21:39:48.017Z,17.83
2019-02-20T21:44:28.728Z,16.90
2019-02-20T21:49:11.401Z,19.23
2019-02-20T21:53:52.063Z,20.60
2019-02-20T21:58:33.247Z,17.93
2019-02-20T22:03:15.808Z,19.00
2019-02-20T22:07:30.321Z,18.90
2019-02-20T22:11:44.261Z,17.87
2019-02-20T22:15:58.601Z,18.73
2019-02-20T22:20:13.032Z,17.80
2019-02-20T22:24:55.578Z,21.60
2019-02-20T22:29:36.190Z,23.53
2019-02-20T22:33:59.024Z,20.30
2019-02-20T22:38:39.677Z,21.47
2019-02-20T22:43:20.320Z,19.50
2019-02-20T22:48:01.132Z,18.00
2019-02-20T22:52:43.737Z,18.23
2019-02-20T22:57:24.351Z,24.00
2019-02-20T23:02:05.176Z,18.67
2019-02-20T23:06:45.898Z,20.33
2019-02-20T23:11:00.393Z,18.67
2019-02-20T23:15:14.691Z,19.47
2019-02-20T23:19:28.409Z,19.90
2019-02-20T23:23:42.957Z,20.90
2019-02-20T23:27:57.682Z,19.27
2019-02-20T23:32:12.048Z,19.60
2019-02-20T23:36:13.105Z,20.93
2019-02-20T23:40:33.865Z,22.73
2019-02-20T23:44:54.735Z,20.87
2019-02-20T23:48:55.611Z,18.90
2019-02-20T23:53:18.651Z,18.50
2019-02-20T23:57:19.080Z,16.70
